Time;durP1;ratioP1;P1;durP2;ratioP2;P2;SDS_P1;SDS_P2;PMS_P1;PMS_P2;Temp;Humidity;BMP_temperature;BMP_pressure;BME280_temperature;BME280_humidity;BME280_pressure;Samples;Min_cycle;Max_cycle;Signal;HPM_P1;HPM_P2
2021/01/20 00:00:25;;;;;;;1.42;0.80;;;;;;;2.25;84.97;95715.06;1032334;28;20018;-77
2021/01/20 00:00:56;;;;;;;1.73;0.95;;;;;;;2.20;85.57;95719.84;1032491;28;20164;-77
2021/01/20 00:01:27;;;;;;;2.25;1.00;;;;;;;2.13;85.45;95708.25;1036640;28;20028;-77
2021/01/20 00:01:58;;;;;;;2.47;1.10;;;;;;;2.06;85.71;95698.28;1028485;28;20134;-77
2021/01/20 00:02:28;;;;;;;2.28;1.05;;;;;;;2.03;86.24;95702.94;1036371;28;20399;-77
2021/01/20 00:02:59;;;;;;;3.03;1.40;;;;;;;2.11;86.49;95715.38;1040628;28;20041;-77
2021/01/20 00:03:30;;;;;;;2.00;1.10;;;;;;;2.10;86.10;95714.56;1032423;28;20502;-76
2021/01/20 00:04:00;;;;;;;1.63;0.95;;;;;;;2.06;86.29;95714.00;1036258;28;20030;-77
2021/01/20 00:04:31;;;;;;;2.40;1.30;;;;;;;1.96;86.77;95699.19;1036486;28;20506;-77
2021/01/20 00:05:03;;;;;;;2.63;1.10;;;;;;;1.96;87.01;95705.25;1020500;29;20028;-77
2021/01/20 00:05:33;;;;;;;2.08;1.10;;;;;;;1.81;86.85;95681.19;1032536;28;20530;-77
2021/01/20 00:06:05;;;;;;;2.70;1.45;;;;;;;1.98;86.83;95724.28;1036352;28;20033;-77
2021/01/20 00:06:35;;;;;;;2.28;1.15;;;;;;;1.95;86.94;95716.69;1028341;28;20035;-76
2021/01/20 00:07:06;;;;;;;2.65;1.23;;;;;;;1.78;87.11;95689.31;1024605;29;20114;-76
2021/01/20 00:07:37;;;;;;;1.67;1.10;;;;;;;1.90;87.50;95718.88;1028387;28;20521;-77
2021/01/20 00:08:07;;;;;;;1.45;0.88;;;;;;;1.84;87.85;95716.75;1032339;28;20403;-77
2021/01/20 00:08:38;;;;;;;2.05;1.00;;;;;;;1.75;87.90;95705.25;1028294;28;20035;-77
2021/01/20 00:09:09;;;;;;;2.22;1.08;;;;;;;1.75;87.99;95699.19;1036433;28;20032;-77
2021/01/20 00:09:40;;;;;;;1.80;0.85;;;;;;;1.80;88.39;95721.41;1024394;29;20031;-77
2021/01/20 00:10:12;;;;;;;2.45;1.08;;;;;;;1.68;88.24;95697.06;1036363;28;20026;-76
2021/01/20 00:10:43;;;;;;;2.03;1.10;;;;;;;1.78;88.56;95719.91;1032321;28;20466;-77
2021/01/20 00:11:13;;;;;;;3.10;1.20;;;;;;;1.75;88.88;95717.53;1032447;28;20124;-77
2021/01/20 00:11:44;;;;;;;4.45;1.00;;;;;;;1.69;89.15;95716.25;1040553;28;20046;-77
2021/01/20 00:12:16;;;;;;;2.00;1.00;;;;;;;1.67;89.35;95723.38;1028298;28;20035;-77
2021/01/20 00:12:47;;;;;;;3.58;1.20;;;;;;;1.53;89.43;95692.28;1036348;28;20032;-77
2021/01/20 00:13:19;;;;;;;1.67;1.02;;;;;;;1.51;89.63;95695.03;1036504;28;20029;-77
2021/01/20 00:13:49;;;;;;;2.83;0.98;;;;;;;1.63;90.09;95717.56;1036489;28;20053;-77
2021/01/20 00:14:20;;;;;;;1.63;0.93;;;;;;;1.62;89.65;95709.84;1036391;28;20029;-77
2021/01/20 00:14:51;;;;;;;2.70;1.13;;;;;;;1.56;89.53;95700.72;1024306;28;20118;-77
2021/01/20 00:15:22;;;;;;;2.38;1.23;;;;;;;1.52;89.60;95696.69;1036506;28;20422;-77
2021/01/20 00:15:53;;;;;;;2.33;1.20;;;;;;;1.59;89.94;95705.69;1020429;29;20027;-76
2021/01/20 00:16:24;;;;;;;1.73;0.88;;;;;;;1.57;90.04;95707.63;1032397;28;20498;-76
2021/01/20 00:16:55;;;;;;;1.95;1.08;;;;;;;1.56;90.11;95703.31;1016313;29;20020;-76
2021/01/20 00:17:25;;;;;;;3.92;1.10;;;;;;;1.50;90.27;95699.44;1032378;28;20417;-77
2021/01/20 00:17:56;;;;;;;2.80;1.17;;;;;;;1.53;90.38;95705.38;1028376;28;20034;-77
2021/01/20 00:18:27;;;;;;;1.88;1.05;;;;;;;1.54;90.07;95717.50;1032306;28;20033;-77
2021/01/20 00:18:57;;;;;;;2.60;1.17;;;;;;;1.53;90.19;95703.56;1028302;28;20026;-77
2021/01/20 00:19:28;;;;;;;2.92;1.70;;;;;;;1.52;90.26;95714.19;1024421;29;20551;-77
2021/01/20 00:19:59;;;;;;;2.67;1.13;;;;;;;1.43;90.26;95685.19;1028371;28;20483;-77
2021/01/20 00:20:29;;;;;;;3.80;1.55;;;;;;;1.51;90.19;95702.88;1028244;28;20034;-76
2021/01/20 00:21:00;;;;;;;2.08;1.08;;;;;;;1.63;89.06;95708.88;1028277;28;20030;-77
2021/01/20 00:21:30;;;;;;;2.55;1.08;;;;;;;1.52;89.02;95686.22;1040480;28;20025;-77
2021/01/20 00:22:02;;;;;;;2.05;1.05;;;;;;;1.61;89.06;95697.72;1028325;28;20058;-77
2021/01/20 00:22:33;;;;;;;2.55;1.10;;;;;;;1.58;89.03;95704.03;1028322;28;20054;-76
2021/01/20 00:23:05;;;;;;;2.33;1.15;;;;;;;1.57;89.02;95697.16;1028135;28;20038;-77
2021/01/20 00:23:35;;;;;;;2.63;1.02;;;;;;;1.53;89.04;95687.88;1028374;28;20029;-77
2021/01/20 00:24:06;;;;;;;2.47;1.00;;;;;;;1.63;88.56;95690.56;1024494;28;20089;-77
2021/01/20 00:24:37;;;;;;;1.90;1.00;;;;;;;1.65;88.21;95691.28;1032311;28;20544;-77
2021/01/20 00:25:09;;;;;;;2.65;1.20;;;;;;;1.76;87.44;95695.59;1024206;29;20031;-77
2021/01/20 00:25:40;;;;;;;3.20;1.02;;;;;;;1.76;87.13;95698.22;1032331;28;20033;-77
2021/01/20 00:26:11;;;;;;;1.95;0.90;;;;;;;1.59;88.00;95681.31;1028383;28;20053;-77
2021/01/20 00:26:42;;;;;;;2.58;1.30;;;;;;;1.53;87.94;95677.41;1036455;28;20032;-76
2021/01/20 00:27:12;;;;;;;3.65;1.17;;;;;;;1.66;88.09;95701.63;1028281;28;20097;-77
2021/01/20 00:27:43;;;;;;;2.63;1.33;;;;;;;1.72;87.08;95697.66;1028238;28;20391;-76
2021/01/20 00:28:14;;;;;;;1.98;0.85;;;;;;;1.78;87.05;95693.72;1028344;28;20026;-77
2021/01/20 00:28:45;;;;;;;1.35;0.93;;;;;;;1.73;86.93;95695.88;1028327;28;20030;-77
2021/01/20 00:29:18;;;;;;;2.40;1.17;;;;;;;1.70;87.14;95683.88;1028151;28;20058;-77
2021/01/20 00:29:49;;;;;;;2.60;1.20;;;;;;;1.74;87.09;95693.09;1024322;29;20055;-77
2021/01/20 00:30:21;;;;;;;1.73;0.93;;;;;;;1.58;87.03;95675.25;1028289;28;20027;-77
2021/01/20 00:30:54;;;;;;;3.63;1.00;;;;;;;1.69;87.13;95695.31;1024358;29;20058;-77
2021/01/20 00:31:25;;;;;;;2.55;1.05;;;;;;;1.67;87.14;95690.19;1032267;28;20034;-76
2021/01/20 00:31:55;;;;;;;1.58;0.90;;;;;;;1.65;87.17;95699.94;1028278;28;20042;-77
2021/01/20 00:32:26;;;;;;;2.58;1.15;;;;;;;1.66;87.37;95691.16;1032296;28;20033;-77
2021/01/20 00:32:58;;;;;;;2.15;1.05;;;;;;;1.56;87.27;95665.88;1028349;28;20035;-77
2021/01/20 00:33:29;;;;;;;2.38;0.93;;;;;;;1.64;87.09;95676.53;1028115;28;20034;-77
2021/01/20 00:33:59;;;;;;;2.70;1.00;;;;;;;1.63;87.25;95680.09;1028322;28;20026;-77
2021/01/20 00:34:30;;;;;;;2.67;1.10;;;;;;;1.72;87.27;95695.03;1032352;28;20546;-77
2021/01/20 00:35:04;;;;;;;2.97;1.23;;;;;;;1.69;87.23;95692.69;1028380;28;20026;-77
2021/01/20 00:35:35;;;;;;;1.85;1.00;;;;;;;1.68;86.95;95694.47;1036206;28;20500;-77
2021/01/20 00:36:07;;;;;;;1.88;1.23;;;;;;;1.67;87.22;95691.97;1032361;28;20089;-77
2021/01/20 00:36:38;;;;;;;1.10;0.77;;;;;;;1.66;86.88;95679.84;1032291;28;20546;-77
2021/01/20 00:37:08;;;;;;;2.53;1.15;;;;;;;1.65;87.08;95689.47;1024365;28;20037;-77
2021/01/20 00:37:39;;;;;;;2.15;0.90;;;;;;;1.66;86.99;95693.75;1032087;28;20520;-77
2021/01/20 00:38:10;;;;;;;2.20;0.90;;;;;;;1.57;87.18;95676.22;1036304;28;20046;-76
2021/01/20 00:38:41;;;;;;;3.72;1.00;;;;;;;1.65;87.17;95692.09;1040458;28;20025;-77
2021/01/20 00:39:11;;;;;;;0.80;0.60;;;;;;;1.52;87.19;95669.72;1028293;28;20475;-76
2021/01/20 00:39:42;;;;;;;5.45;0.90;;;;;;;1.66;87.21;95690.31;1028085;28;20033;-77
2021/01/20 00:40:14;;;;;;;2.55;1.10;;;;;;;1.72;86.82;95689.78;1028379;28;20380;-76
2021/01/20 00:40:44;;;;;;;2.20;0.98;;;;;;;1.63;86.66;95674.88;1032420;28;20447;-77
2021/01/20 00:41:15;;;;;;;1.88;1.00;;;;;;;1.68;87.02;95694.47;1028273;28;20015;-76
2021/01/20 00:41:46;;;;;;;2.22;0.98;;;;;;;1.65;86.99;95684.25;1032166;28;20026;-77
2021/01/20 00:42:17;;;;;;;4.40;1.00;;;;;;;1.67;86.88;95684.97;1024203;29;20018;-77
2021/01/20 00:42:48;;;;;;;2.05;0.98;;;;;;;1.58;87.16;95672.63;1032308;28;20051;-77
2021/01/20 00:43:19;;;;;;;3.20;1.10;;;;;;;1.60;87.08;95673.34;1036300;28;20026;-77
2021/01/20 00:43:50;;;;;;;2.90;1.15;;;;;;;1.73;86.79;95688.03;1040270;28;20017;-77
2021/01/20 00:44:21;;;;;;;1.48;0.85;;;;;;;1.73;86.81;95691.47;1036274;28;20040;-77
2021/01/20 00:44:51;;;;;;;2.03;0.90;;;;;;;1.69;87.20;95693.50;1036313;28;20025;-77
2021/01/20 00:45:22;;;;;;;2.75;1.05;;;;;;;1.67;87.21;95684.97;1032173;28;20014;-77
2021/01/20 00:45:53;;;;;;;1.58;0.88;;;;;;;1.49;86.81;95663.75;1040218;28;20017;-77
2021/01/20 00:46:25;;;;;;;2.10;1.00;;;;;;;1.65;86.95;95692.09;1032291;28;20011;-77
2021/01/20 00:46:55;;;;;;;3.03;1.10;;;;;;;1.60;86.92;95685.59;1036327;28;20490;-77
2021/01/20 00:47:26;;;;;;;2.58;1.20;;;;;;;1.64;87.06;95692.25;1032303;28;20018;-77
2021/01/20 00:47:57;;;;;;;2.85;1.20;;;;;;;1.66;87.09;95698.19;1036072;28;20078;-77
2021/01/20 00:48:28;;;;;;;2.83;0.98;;;;;;;1.65;87.29;95684.25;1032234;28;20011;-77
2021/01/20 00:48:59;;;;;;;2.45;1.00;;;;;;;1.63;87.36;95691.41;1028281;28;20011;-77
2021/01/20 00:49:29;;;;;;;2.75;0.80;;;;;;;1.62;87.28;95700.22;1032023;28;20023;-77
2021/01/20 00:50:00;;;;;;;1.08;0.70;;;;;;;1.61;87.57;95693.31;1036229;28;20419;-77
2021/01/20 00:50:31;;;;;;;4.10;0.98;;;;;;;1.50;87.44;95677.69;1032308;28;20114;-77
2021/01/20 00:51:02;;;;;;;2.05;0.80;;;;;;;1.59;87.33;95687.38;1036216;28;20372;-76
2021/01/20 00:51:33;;;;;;;2.45;1.13;;;;;;;1.56;87.47;95695.47;1024280;29;20369;-77
2021/01/20 00:52:04;;;;;;;3.25;1.10;;;;;;;1.52;87.95;95691.47;1040239;28;20025;-77
2021/01/20 00:52:35;;;;;;;1.77;0.80;;;;;;;1.41;87.51;95681.03;1024142;29;20031;-77
2021/01/20 00:53:05;;;;;;;1.30;0.80;;;;;;;1.44;87.85;95681.63;1036299;28;20030;-77
2021/01/20 00:53:37;;;;;;;1.27;0.80;;;;;;;1.50;87.96;95701.22;1028253;28;20018;-77
2021/01/20 00:54:10;;;;;;;1.92;1.02;;;;;;;1.38;88.07;95681.31;1020190;29;20496;-77
2021/01/20 00:54:40;;;;;;;2.10;0.93;;;;;;;1.47;88.01;95702.31;1032255;28;20499;-77
2021/01/20 00:55:14;;;;;;;3.17;1.20;;;;;;;1.39;87.85;95688.19;1032241;28;20022;-77
2021/01/20 00:55:45;;;;;;;1.75;0.88;;;;;;;1.40;87.94;95685.44;1028493;28;20026;-77
2021/01/20 00:56:16;;;;;;;2.78;1.30;;;;;;;1.30;87.88;95674.91;1028193;28;20027;-77
2021/01/20 00:56:46;;;;;;;2.35;0.98;;;;;;;1.39;88.25;95691.63;1032159;28;20096;-77
2021/01/20 00:57:17;;;;;;;1.25;0.60;;;;;;;1.42;87.98;95706.25;1032336;28;20031;-77
2021/01/20 00:57:48;;;;;;;1.15;0.77;;;;;;;1.40;88.10;95701.16;1036140;28;20030;-77
2021/01/20 00:58:18;;;;;;;2.42;0.80;;;;;;;1.26;88.00;95673.50;1032093;28;20410;-77
2021/01/20 00:58:49;;;;;;;3.70;0.93;;;;;;;1.39;88.18;95693.41;1036240;28;20030;-77
2021/01/20 00:59:20;;;;;;;1.25;0.63;;;;;;;1.30;88.32;95685.38;1016333;29;20114;-77
2021/01/20 00:59:51;;;;;;;1.85;0.90;;;;;;;1.40;88.55;95697.72;1028214;28;20085;-77
2021/01/20 01:00:22;;;;;;;2.03;0.85;;;;;;;1.38;88.46;95699.63;1024020;29;20567;-77
2021/01/20 01:00:53;;;;;;;2.08;0.80;;;;;;;1.34;88.73;95695.59;1028171;28;20027;-77
2021/01/20 01:01:23;;;;;;;2.42;0.80;;;;;;;1.18;88.82;95681.13;1032201;28;20157;-77
2021/01/20 01:01:57;;;;;;;2.42;0.50;;;;;;;1.31;88.27;95694.88;1028225;28;20475;-77
2021/01/20 01:02:28;;;;;;;1.85;0.80;;;;;;;1.39;87.69;95703.88;1027997;28;20097;-77
2021/01/20 01:02:59;;;;;;;1.27;0.60;;;;;;;1.43;87.78;95700.91;1024162;28;20031;-76
2021/01/20 01:03:30;;;;;;;1.35;0.80;;;;;;;1.43;87.79;95700.06;1036150;28;20466;-77
2021/01/20 01:04:00;;;;;;;1.77;0.85;;;;;;;1.42;87.67;95703.63;1031963;28;20399;-77
2021/01/20 01:04:32;;;;;;;2.00;0.98;;;;;;;1.37;87.64;95690.09;1035969;28;20092;-77
2021/01/20 01:05:04;;;;;;;1.08;0.68;;;;;;;1.44;87.50;95704.34;1028213;28;20023;-77
2021/01/20 01:05:35;;;;;;;1.20;0.65;;;;;;;1.36;87.43;95683.19;1032220;28;20014;-77
2021/01/20 01:06:06;;;;;;;2.25;1.25;;;;;;;1.45;87.59;95698.16;1032214;28;20102;-77
2021/01/20 01:06:38;;;;;;;1.60;0.60;;;;;;;1.50;87.38;95698.63;1036076;28;20114;-77
2021/01/20 01:07:09;;;;;;;1.58;0.70;;;;;;;1.49;87.60;95704.78;1036171;28;20471;-77
2021/01/20 01:07:40;;;;;;;1.70;0.98;;;;;;;1.47;87.75;95704.09;1036206;28;20025;-77
2021/01/20 01:08:11;;;;;;;4.13;0.60;;;;;;;1.39;87.41;95689.00;1036198;28;20022;-77
2021/01/20 01:08:42;;;;;;;0.80;0.60;;;;;;;1.46;87.58;95700.66;1028078;28;20026;-77
2021/01/20 01:09:15;;;;;;;1.50;0.65;;;;;;;1.48;87.20;95682.19;1024136;28;20023;-77
2021/01/20 01:09:45;;;;;;;1.17;0.60;;;;;;;1.66;86.56;95699.00;1028159;28;20152;-77
2021/01/20 01:10:17;;;;;;;1.20;0.70;;;;;;;1.65;86.95;95699.13;1036176;28;20506;-77
2021/01/20 01:10:48;;;;;;;1.17;0.80;;;;;;;1.64;86.61;95698.31;1040119;28;20029;-77
2021/01/20 01:11:20;;;;;;;1.33;0.65;;;;;;;1.77;85.67;95692.03;1028111;28;20019;-77
2021/01/20 01:11:51;;;;;;;1.48;0.70;;;;;;;1.70;85.98;95708.25;1040292;28;20410;-77
2021/01/20 01:12:21;;;;;;;1.45;0.85;;;;;;;1.74;85.77;95700.16;1028141;28;20019;-77
2021/01/20 01:12:52;;;;;;;1.98;0.90;;;;;;;1.66;85.56;95675.44;1036068;28;20049;-77
2021/01/20 01:13:23;;;;;;;1.73;0.63;;;;;;;1.74;86.05;95694.91;1040219;28;20490;-77
2021/01/20 01:13:54;;;;;;;1.65;0.90;;;;;;;1.58;85.72;95677.03;1036187;28;20117;-77
2021/01/20 01:14:24;;;;;;;1.40;0.70;;;;;;;1.58;85.58;95677.03;1032162;28;20026;-77
2021/01/20 01:14:56;;;;;;;1.67;0.70;;;;;;;1.70;85.85;95695.16;1036136;28;20484;-77
2021/01/20 01:15:27;;;;;;;2.30;0.82;;;;;;;1.62;85.69;95676.66;1036140;28;20065;-77
2021/01/20 01:15:58;;;;;;;1.67;0.60;;;;;;;1.58;85.44;95667.38;1036354;28;20420;-77
2021/01/20 01:16:29;;;;;;;1.10;0.73;;;;;;;1.60;85.38;95670.72;1020275;29;20476;-77
2021/01/20 01:17:00;;;;;;;1.58;0.80;;;;;;;1.78;85.58;95693.72;1032024;28;20399;-77
2021/01/20 01:17:31;;;;;;;2.05;1.00;;;;;;;1.65;85.27;95672.94;1032082;28;20126;-77
2021/01/20 01:18:02;;;;;;;1.40;0.77;;;;;;;1.66;85.30;95685.09;1028165;28;20089;-77
2021/01/20 01:18:33;;;;;;;1.50;0.60;;;;;;;1.59;85.85;95676.91;1028148;28;20033;-77
2021/01/20 01:19:04;;;;;;;0.98;0.80;;;;;;;1.68;85.89;95688.41;1027984;28;20114;-77
2021/01/20 01:19:35;;;;;;;3.10;1.00;;;;;;;1.57;86.00;95672.75;1032108;28;20033;-77
2021/01/20 01:20:07;;;;;;;1.63;0.55;;;;;;;1.56;86.17;95681.56;1036194;28;20022;-76
2021/01/20 01:20:37;;;;;;;1.70;0.60;;;;;;;1.68;85.40;95691.03;1028058;28;20034;-77
2021/01/20 01:21:08;;;;;;;1.08;0.75;;;;;;;1.67;85.73;95684.97;1032021;28;20424;-77
2021/01/20 01:21:39;;;;;;;1.17;0.75;;;;;;;1.67;85.72;95687.59;1036098;28;20029;-77
2021/01/20 01:22:09;;;;;;;1.80;0.70;;;;;;;1.60;85.81;95682.97;1028096;28;20126;-77
2021/01/20 01:22:40;;;;;;;2.03;0.90;;;;;;;1.64;86.10;95687.00;1032162;28;20173;-77
2021/01/20 01:23:11;;;;;;;1.13;0.70;;;;;;;1.71;85.34;95685.53;1028120;28;20027;-77
2021/01/20 01:23:41;;;;;;;1.58;0.65;;;;;;;1.72;85.35;95688.97;1028043;28;20037;-77
2021/01/20 01:24:12;;;;;;;1.33;0.75;;;;;;;1.64;85.49;95671.31;1024229;28;20031;-76
2021/01/20 01:24:43;;;;;;;1.58;0.73;;;;;;;1.50;85.46;95652.34;1036298;28;20438;-77
2021/01/20 01:25:14;;;;;;;1.83;0.93;;;;;;;1.57;85.49;95665.75;1028071;28;20173;-77
2021/01/20 01:25:45;;;;;;;1.55;0.70;;;;;;;1.40;85.65;95633.13;1036113;28;20486;-77
2021/01/20 01:26:15;;;;;;;1.08;0.68;;;;;;;1.80;84.77;95687.38;1028080;28;20038;-77
2021/01/20 01:26:46;;;;;;;2.33;1.00;;;;;;;1.79;85.23;95684.88;1032149;28;20029;-76
2021/01/20 01:27:17;;;;;;;1.23;0.70;;;;;;;1.77;85.19;95684.19;1028029;28;20096;-76
2021/01/20 01:27:47;;;;;;;2.33;0.73;;;;;;;1.76;85.00;95679.91;1031921;28;20026;-77
2021/01/20 01:28:18;;;;;;;3.22;1.15;;;;;;;1.78;85.02;95672.78;1028071;28;20027;-76
2021/01/20 01:28:49;;;;;;;1.55;0.90;;;;;;;1.67;85.31;95666.66;1028111;28;20030;-77
2021/01/20 01:29:20;;;;;;;2.08;0.70;;;;;;;1.83;84.67;95679.28;1032122;28;20089;-77
2021/01/20 01:29:51;;;;;;;1.73;0.55;;;;;;;1.80;84.61;95670.84;1027963;28;20479;-77
2021/01/20 01:30:23;;;;;;;2.88;0.88;;;;;;;1.88;84.41;95676.25;1036099;28;20033;-77
2021/01/20 01:30:54;;;;;;;1.33;0.60;;;;;;;1.84;84.61;95672.25;1032095;28;20026;-76
2021/01/20 01:31:24;;;;;;;1.55;0.60;;;;;;;1.86;84.77;95676.41;1032098;28;20109;-77
2021/01/20 01:31:56;;;;;;;1.63;0.70;;;;;;;1.84;84.88;95677.47;1028009;28;20022;-77
2021/01/20 01:32:26;;;;;;;0.95;0.60;;;;;;;1.77;84.59;95666.69;1032069;28;20038;-77
2021/01/20 01:32:57;;;;;;;1.20;0.63;;;;;;;1.79;84.92;95675.22;1032119;28;20495;-77
2021/01/20 01:33:31;;;;;;;1.52;0.80;;;;;;;1.77;84.94;95674.53;1032088;28;20026;-77
2021/01/20 01:34:02;;;;;;;1.55;0.90;;;;;;;1.67;84.93;95669.25;1027994;28;20036;-77
2021/01/20 01:34:33;;;;;;;1.30;0.60;;;;;;;1.75;85.09;95678.25;1036148;28;20032;-76
2021/01/20 01:35:04;;;;;;;1.45;0.70;;;;;;;1.75;84.98;95679.06;1036186;28;20409;-77
2021/01/20 01:35:35;;;;;;;1.65;0.70;;;;;;;1.79;84.57;95674.41;1032049;28;20018;-77
2021/01/20 01:36:06;;;;;;;1.05;0.80;;;;;;;1.82;84.58;95674.97;1036181;28;20496;-77
2021/01/20 01:36:37;;;;;;;1.27;0.65;;;;;;;1.79;84.75;95677.03;1032047;28;20414;-77
2021/01/20 01:37:08;;;;;;;2.15;0.68;;;;;;;1.76;85.03;95683.38;1020121;28;20023;-77
2021/01/20 01:37:39;;;;;;;1.10;0.60;;;;;;;1.77;84.99;95677.16;1031942;28;20026;-77
2021/01/20 01:38:09;;;;;;;0.77;0.50;;;;;;;1.61;84.63;95648.81;1027908;28;20157;-77
2021/01/20 01:38:40;;;;;;;3.42;0.80;;;;;;;1.82;84.48;95680.22;1028139;28;20070;-77
2021/01/20 01:39:11;;;;;;;5.07;1.13;;;;;;;1.73;84.81;95680.19;1032110;28;20022;-77
2021/01/20 01:39:42;;;;;;;1.52;0.70;;;;;;;1.77;84.62;95681.56;1032064;28;20402;-77
2021/01/20 01:40:12;;;;;;;1.15;0.65;;;;;;;1.74;84.56;95677.41;1035995;28;20064;-77
2021/01/20 01:40:43;;;;;;;1.65;0.75;;;;;;;1.74;84.78;95679.19;1036145;28;20465;-77
2021/01/20 01:41:14;;;;;;;0.82;0.57;;;;;;;1.73;84.89;95675.75;1032122;28;20022;-77
2021/01/20 01:41:45;;;;;;;2.08;0.65;;;;;;;1.70;84.78;95676.00;1040187;28;20033;-77
2021/01/20 01:42:25;;;;;;;1.80;0.98;;;;;;;1.69;84.72;95679.59;1027885;28;20033;-77
2021/01/20 01:42:56;;;;;;;;;;;;;;;1.68;85.06;95676.13;1028546;28;20075;-77
2021/01/20 01:43:27;;;;;;;1.90;1.02;;;;;;;1.38;85.13;95634.22;1032056;28;19956;-76
2021/01/20 01:43:58;;;;;;;1.80;0.75;;;;;;;1.65;85.43;95679.00;1027968;28;20022;-77
2021/01/20 01:44:28;;;;;;;1.20;0.60;;;;;;;1.61;85.40;95667.13;1027857;28;20030;-77
2021/01/20 01:44:59;;;;;;;2.70;0.93;;;;;;;1.41;85.30;95645.25;1027987;28;20038;-77
2021/01/20 01:45:30;;;;;;;1.10;0.50;;;;;;;1.66;85.00;95680.69;1032088;28;20033;-76
2021/01/20 01:46:01;;;;;;;1.20;0.77;;;;;;;1.58;84.95;95662.16;1020034;29;20031;-77
2021/01/20 01:46:31;;;;;;;1.95;0.63;;;;;;;1.60;85.25;95665.50;1036020;28;20030;-77
2021/01/20 01:47:02;;;;;;;2.40;0.80;;;;;;;1.62;85.31;95676.66;1024041;29;20043;-77
2021/01/20 01:47:33;;;;;;;1.27;0.68;;;;;;;1.50;85.45;95665.44;1035988;28;20116;-77
2021/01/20 01:48:04;;;;;;;1.60;0.60;;;;;;;1.47;85.63;95655.19;1027982;28;20498;-77
2021/01/20 01:48:35;;;;;;;1.40;0.70;;;;;;;1.54;85.32;95657.31;1035927;28;20382;-77
2021/01/20 01:49:05;;;;;;;1.52;0.65;;;;;;;1.62;84.95;95670.59;1028041;28;20030;-77
2021/01/20 01:49:36;;;;;;;2.08;0.85;;;;;;;1.53;85.21;95664.31;1039967;28;20057;-77
2021/01/20 01:50:08;;;;;;;1.08;0.63;;;;;;;1.65;85.05;95668.53;1027899;28;20066;-77
2021/01/20 01:50:39;;;;;;;1.60;0.63;;;;;;;1.62;85.22;95674.03;1031877;28;20011;-77
2021/01/20 01:51:10;;;;;;;2.00;0.70;;;;;;;1.62;85.53;95673.19;1036159;28;20474;-77
2021/01/20 01:51:40;;;;;;;1.35;0.60;;;;;;;1.60;85.50;95675.97;1027978;28;20031;-77
2021/01/20 01:52:11;;;;;;;1.33;0.70;;;;;;;1.58;85.81;95672.63;1040138;28;20068;-77
2021/01/20 01:52:42;;;;;;;2.88;0.90;;;;;;;1.57;85.47;95670.13;1027863;28;20027;-77
2021/01/20 01:53:13;;;;;;;1.17;0.63;;;;;;;1.64;85.22;95666.91;1028056;28;20458;-77
2021/01/20 01:53:43;;;;;;;1.15;0.60;;;;;;;1.61;85.10;95671.56;1036045;28;20625;-77
2021/01/20 01:54:14;;;;;;;1.13;0.57;;;;;;;1.65;85.09;95671.16;1031956;28;20049;-77
2021/01/20 01:54:45;;;;;;;1.75;0.80;;;;;;;1.65;84.78;95670.34;1035952;28;20061;-77
2021/01/20 01:55:16;;;;;;;1.98;0.70;;;;;;;1.61;85.34;95677.59;1024070;28;20020;-77
2021/01/20 01:55:48;;;;;;;1.67;0.80;;;;;;;1.60;85.28;95664.66;1036023;28;20021;-77
2021/01/20 01:56:18;;;;;;;0.93;0.60;;;;;;;1.60;84.62;95664.66;1028045;28;20023;-77
2021/01/20 01:56:49;;;;;;;1.63;0.70;;;;;;;1.67;84.84;95665.78;1031936;28;20113;-77
2021/01/20 01:57:20;;;;;;;1.33;0.70;;;;;;;1.65;84.96;95670.34;1024025;28;20027;-77
2021/01/20 01:57:52;;;;;;;2.05;0.60;;;;;;;1.63;85.00;95669.63;1036034;28;20486;-77
2021/01/20 01:58:23;;;;;;;1.15;0.50;;;;;;;1.61;84.98;95669.75;1031850;28;20024;-77
2021/01/20 01:58:54;;;;;;;1.73;0.70;;;;;;;1.56;85.04;95660.63;1035852;28;20425;-76
2021/01/20 01:59:24;;;;;;;1.58;0.70;;;;;;;1.59;85.25;95669.06;1027961;28;20499;-77
2021/01/20 01:59:56;;;;;;;2.72;1.00;;;;;;;1.57;85.03;95668.38;1031998;28;20027;-77
2021/01/20 02:00:27;;;;;;;2.03;0.93;;;;;;;1.56;85.33;95671.94;1023890;29;20506;-77
2021/01/20 02:00:58;;;;;;;1.65;0.70;;;;;;;1.45;85.38;95654.50;1027755;28;20030;-77
2021/01/20 02:01:29;;;;;;;1.65;0.80;;;;;;;1.63;84.93;95659.16;1028030;28;20025;-77
2021/01/20 02:02:00;;;;;;;1.50;0.88;;;;;;;1.46;85.14;95643.09;1023994;28;20038;-76
2021/01/20 02:02:31;;;;;;;1.02;0.68;;;;;;;1.53;85.18;95656.47;1027915;28;20402;-77
2021/01/20 02:03:02;;;;;;;0.93;0.55;;;;;;;1.62;84.92;95673.19;1036001;28;20051;-77
2021/01/20 02:03:33;;;;;;;1.50;0.70;;;;;;;1.52;84.91;95657.44;1031811;28;20038;-77
2021/01/20 02:04:04;;;;;;;1.55;0.70;;;;;;;1.61;85.09;95671.56;1027840;28;20543;-76
2021/01/20 02:04:35;;;;;;;2.33;0.70;;;;;;;1.46;84.86;95650.09;1023993;28;20118;-77
2021/01/20 02:05:06;;;;;;;1.58;0.73;;;;;;;1.47;85.41;95651.75;1031793;28;20152;-76
2021/01/20 02:05:37;;;;;;;1.33;0.70;;;;;;;1.54;85.69;95670.41;1027950;28;20026;-77
2021/01/20 02:06:08;;;;;;;1.48;0.70;;;;;;;1.57;85.57;95670.13;1032012;28;20105;-77
2021/01/20 02:06:39;;;;;;;1.52;0.55;;;;;;;1.53;85.72;95671.34;1031880;28;20410;-77
2021/01/20 02:07:10;;;;;;;2.25;0.95;;;;;;;1.49;85.89;95674.22;1023749;28;20110;-77
2021/01/20 02:07:43;;;;;;;1.90;0.80;;;;;;;1.53;85.66;95664.31;1031922;28;20019;-76
2021/01/20 02:08:13;;;;;;;2.17;0.63;;;;;;;1.52;85.25;95665.31;1027971;28;20062;-77
2021/01/20 02:08:44;;;;;;;1.75;0.80;;;;;;;1.55;85.75;95672.06;1032009;28;20581;-77
2021/01/20 02:09:15;;;;;;;1.15;0.68;;;;;;;1.61;85.32;95672.38;1031865;28;20109;-76
2021/01/20 02:09:46;;;;;;;1.88;0.80;;;;;;;1.54;85.49;95666.00;1031996;28;20019;-77
2021/01/20 02:10:21;;;;;;;1.20;0.65;;;;;;;1.49;85.33;95653.28;1031950;28;20018;-77
2021/01/20 02:10:53;;;;;;;1.65;0.80;;;;;;;1.54;85.85;95671.22;1031921;28;20069;-77
2021/01/20 02:11:38;;;;;;;1.40;0.60;;;;;;;1.52;85.58;95673.16;1031800;28;20025;-77
2021/01/20 02:12:23;;;;;;;3.40;1.10;;;;;;;1.46;86.37;95673.63;1040141;28;20608;-77
2021/01/20 02:13:14;;;;;;;2.00;1.15;;;;;;;1.40;86.55;95663.69;1031909;28;20072;-77
2021/01/20 02:13:53;;;;;;;1.92;0.80;;;;;;;1.35;86.83;95665.88;1035899;28;20026;-77
2021/01/20 02:14:24;;;;;;;1.65;0.63;;;;;;;1.37;86.88;95674.41;1031919;28;20034;-77
2021/01/20 02:15:05;;;;;;;1.77;0.80;;;;;;;1.26;86.73;95659.59;1027952;28;20396;-77
2021/01/20 02:15:47;;;;;;;2.03;0.70;;;;;;;1.35;86.62;95676.31;1027751;28;20114;-77
2021/01/20 02:16:21;;;;;;;2.10;0.88;;;;;;;1.30;86.80;95663.63;1023566;28;20472;-77
2021/01/20 02:17:04;;;;;;;1.15;0.60;;;;;;;1.36;86.48;95676.22;1036003;28;20029;-76
2021/01/20 02:17:47;;;;;;;1.77;0.68;;;;;;;1.36;86.65;95670.13;1031761;28;20034;-77
2021/01/20 02:18:19;;;;;;;1.70;0.82;;;;;;;1.21;87.60;95675.66;1035950;28;20026;-77
2021/01/20 02:18:51;;;;;;;1.83;0.73;;;;;;;1.19;87.13;95669.72;1040140;28;20025;-77
2021/01/20 02:19:21;;;;;;;1.88;0.77;;;;;;;1.22;86.64;95651.19;1031861;28;20046;-77
2021/01/20 02:19:56;;;;;;;3.30;0.80;;;;;;;1.36;86.28;95672.75;1035855;28;20054;-77
2021/01/20 02:20:47;;;;;;;2.15;0.88;;;;;;;1.31;86.60;95671.34;1031890;28;20028;-77
2021/01/20 02:21:34;;;;;;;1.50;0.70;;;;;;;1.22;86.41;95659.03;1031974;28;20116;-76
2021/01/20 02:22:26;;;;;;;1.52;0.63;;;;;;;1.17;86.11;95642.88;1031874;28;20014;-77
2021/01/20 02:22:58;;;;;;;2.50;0.70;;;;;;;1.21;86.51;95656.53;1035944;28;20026;-76
2021/01/20 02:23:29;;;;;;;2.22;0.70;;;;;;;1.14;86.96;95648.34;1031870;28;20026;-77
2021/01/20 02:24:02;;;;;;;2.47;0.80;;;;;;;1.26;86.85;95673.50;1031799;28;20014;-76
2021/01/20 02:24:41;;;;;;;2.60;0.68;;;;;;;1.16;86.66;95666.53;1036002;28;20509;-77
2021/01/20 02:25:35;;;;;;;1.38;0.60;;;;;;;1.12;86.75;95652.88;1027968;28;20146;-77
2021/01/20 02:26:13;;;;;;;1.30;0.70;;;;;;;1.21;87.06;95675.66;1031725;28;20034;-77
2021/01/20 02:26:56;;;;;;;1.75;0.90;;;;;;;1.19;87.61;95671.53;1036035;28;20104;-77
2021/01/20 02:27:30;;;;;;;2.85;0.82;;;;;;;1.02;87.94;95641.50;1036052;28;20029;-77
2021/01/20 02:28:11;;;;;;;1.48;0.70;;;;;;;1.18;87.41;95670.69;1027589;28;20073;-77
2021/01/20 02:28:51;;;;;;;1.30;0.60;;;;;;;1.17;86.85;95655.94;1036025;28;20057;-77
2021/01/20 02:29:34;;;;;;;1.67;0.80;;;;;;;1.15;87.05;95655.25;1031872;28;20080;-77
2021/01/20 02:30:08;;;;;;;2.05;0.90;;;;;;;1.16;86.37;95646.44;1027726;28;20018;-77
2021/01/20 02:30:42;;;;;;;1.95;0.82;;;;;;;1.31;86.48;95662.66;1032090;28;20097;-77
2021/01/20 02:31:13;;;;;;;2.22;0.80;;;;;;;1.13;86.76;95644.91;1027907;28;20393;-77
2021/01/20 02:31:45;;;;;;;1.58;0.77;;;;;;;1.16;87.19;95649.06;1027874;28;20086;-77
2021/01/20 02:32:16;;;;;;;2.55;0.70;;;;;;;1.34;86.35;95670.25;1027718;28;20026;-77